Terminal Aerodrome Forecast
Issued by NWS

Home | Current Version | Previous Version | Text Only | Print | Product List | Glossary On
Versions: 1 2 3 4 5 6 7 8 9 10 11
940
FTUS46 KLOX 232339
TAFSBA
TAF
KSBA 232339Z 2400/2424 26012G20KT P6SM SCT200 WS010/35030KT
     FM240100 36010KT P6SM SCT200 WS010/36035KT
     FM241500 35008KT P6SM SCT200
     FM241900 23010KT P6SM SCT200
     FM242200 26015G22KT P6SM SCT200=

USA.gov is the U.S. government's official web portal to all federal, state and local government web resources and services.